Terminal Aerodrome Forecast
Issued by NWS

Home | Current Version | Previous Version | Text Only | Print | Product List | Glossary On
Versions: 1 2 3 4 5 6 7 8 9 10 11 12 13 14 15 16 17 18 19 20 21
000
FTUS43 KICT 260214 AAA
TAFHUT
TAF AMD
KHUT 260214Z 2602/2624 04014KT P6SM BKN025
     FM260600 05012KT P6SM BKN009
     FM261100 07015KT P6SM OVC015
     FM261900 07014KT P6SM SCT025=

USA.gov is the U.S. government's official web portal to all federal, state and local government web resources and services.